Time;durP1;ratioP1;P1;durP2;ratioP2;P2;SDS_P1;SDS_P2;PMS_P1;PMS_P2;Temp;Humidity;BMP_temperature;BMP_pressure;BME280_temperature;BME280_humidity;BME280_pressure;Samples;Min_cycle;Max_cycle;Signal;HPM_P1;HPM_P2
2023/04/20 00:00:09;;;;;;;4.18;2.63;;;;;;;6.28;45.67;102178.38;4976728;28;20108;-88
2023/04/20 00:02:38;;;;;;;3.67;2.30;;;;;;;6.25;45.42;102177.59;4993661;28;20042;-88
2023/04/20 00:05:07;;;;;;;3.95;2.65;;;;;;;6.17;46.00;102177.88;4967144;28;20073;-88
2023/04/20 00:07:33;;;;;;;4.30;2.83;;;;;;;6.08;45.97;102159.25;4972216;28;20034;-87
2023/04/20 00:09:59;;;;;;;8.18;3.33;;;;;;;6.10;45.78;102168.16;4973097;28;20083;-88
2023/04/20 00:12:24;;;;;;;5.80;2.83;;;;;;;6.07;45.81;102160.19;4985368;28;20077;-89
2023/04/20 00:14:50;;;;;;;3.80;2.60;;;;;;;6.00;46.37;102158.59;4983327;28;20582;-88
2023/04/20 00:17:16;;;;;;;7.65;2.80;;;;;;;6.01;46.28;102157.66;4974396;28;20042;-88
2023/04/20 00:19:41;;;;;;;5.85;2.65;;;;;;;6.01;46.25;102149.56;4974675;28;20026;-87
2023/04/20 00:22:07;;;;;;;3.67;2.80;;;;;;;5.93;46.50;102140.84;4973423;28;20541;-88
2023/04/20 00:24:32;;;;;;;3.90;2.53;;;;;;;5.96;46.98;102148.81;4962979;28;20514;-88
2023/04/20 00:26:57;;;;;;;6.57;2.55;;;;;;;5.87;47.63;102134.69;4985163;28;20082;-89
2023/04/20 00:29:23;;;;;;;4.85;3.05;;;;;;;5.79;47.05;102133.16;4976558;28;20038;-87
2023/04/20 00:31:48;;;;;;;7.57;3.47;;;;;;;5.76;47.81;102133.25;4991041;28;20489;-87
2023/04/20 00:34:14;;;;;;;5.57;2.83;;;;;;;5.67;47.74;102123.59;4975803;28;20038;-88
2023/04/20 00:36:40;;;;;;;5.07;2.72;;;;;;;5.65;47.29;102124.59;4991825;28;20034;-88
2023/04/20 00:39:05;;;;;;;5.57;3.40;;;;;;;5.65;47.87;102119.22;4990458;28;20077;-88
2023/04/20 00:41:31;;;;;;;6.38;3.13;;;;;;;5.60;47.79;102120.22;4991091;28;20049;-88
2023/04/20 00:43:58;;;;;;;5.10;2.67;;;;;;;5.54;47.24;102108.72;4990138;28;20037;-88
2023/04/20 00:46:23;;;;;;;3.42;2.33;;;;;;;5.53;48.12;102115.06;4969025;28;20398;-88
2023/04/20 00:48:52;;;;;;;4.95;2.67;;;;;;;5.48;47.63;102111.63;4991500;28;20038;-88
2023/04/20 00:51:20;;;;;;;7.00;2.83;;;;;;;5.43;47.73;102092.88;4990362;28;20026;-88
2023/04/20 00:53:46;;;;;;;3.72;2.50;;;;;;;5.48;47.88;102098.13;4989825;28;20085;-88
2023/04/20 00:56:15;;;;;;;5.75;2.78;;;;;;;5.44;48.10;102093.75;4990878;28;20499;-87
2023/04/20 00:58:42;;;;;;;6.53;2.60;;;;;;;5.38;48.88;102090.31;4963545;28;20043;-88
2023/04/20 01:01:09;;;;;;;4.43;2.53;;;;;;;5.35;48.58;102084.13;4982432;28;20602;-87
2023/04/20 01:03:35;;;;;;;5.38;2.60;;;;;;;5.31;48.99;102079.75;4990871;28;20450;-87
2023/04/20 01:06:01;;;;;;;4.80;2.47;;;;;;;5.25;50.07;102072.72;4990337;28;20046;-88
2023/04/20 01:08:27;;;;;;;4.65;2.95;;;;;;;5.26;49.58;102076.31;4958885;28;20490;-87
2023/04/20 01:10:54;;;;;;;3.20;2.17;;;;;;;5.19;50.01;102067.53;4955378;28;20506;-86
2023/04/20 01:13:21;;;;;;;8.70;3.90;;;;;;;5.14;50.01;102061.41;4956307;28;20041;-87
2023/04/20 01:15:47;;;;;;;3.45;2.42;;;;;;;5.05;50.62;102062.56;4975799;28;20034;-87
2023/04/20 01:18:14;;;;;;;4.75;2.72;;;;;;;5.09;50.33;102061.53;4969013;28;20494;-86
2023/04/20 01:20:40;;;;;;;3.92;2.53;;;;;;;5.01;51.10;102049.22;4989888;28;20046;-88
2023/04/20 01:23:05;;;;;;;4.15;2.63;;;;;;;4.98;52.06;102055.56;4972306;28;20042;-87
2023/04/20 01:25:30;;;;;;;4.30;2.45;;;;;;;4.90;51.84;102044.13;4971076;28;20038;-87
2023/04/20 01:27:56;;;;;;;3.33;2.40;;;;;;;4.87;52.11;102044.22;4970901;28;20034;-88
2023/04/20 01:30:21;;;;;;;4.85;2.80;;;;;;;4.92;52.01;102044.09;4970542;28;20038;-87
2023/04/20 01:32:46;;;;;;;11.00;3.15;;;;;;;4.87;52.07;102030.75;4954174;28;20177;-88
2023/04/20 01:35:12;;;;;;;3.85;2.47;;;;;;;4.83;51.94;102023.66;4954345;28;20129;-87
2023/04/20 01:37:39;;;;;;;4.30;2.80;;;;;;;4.82;51.92;102027.31;4971999;28;20027;-88
2023/04/20 01:40:05;;;;;;;2.90;2.35;;;;;;;4.79;52.17;102027.38;4954240;28;20108;-87
2023/04/20 01:42:31;;;;;;;4.00;2.70;;;;;;;4.76;52.10;102014.00;4970884;28;20064;-87
2023/04/20 01:44:56;;;;;;;4.32;2.70;;;;;;;4.80;52.19;102024.66;4961163;28;20110;-87
2023/04/20 01:47:21;;;;;;;6.20;2.88;;;;;;;4.77;52.52;102021.16;4990624;28;20122;-87
2023/04/20 01:49:47;;;;;;;4.22;2.70;;;;;;;4.75;52.99;102017.59;4988332;28;20038;-86
2023/04/20 01:52:12;;;;;;;3.47;2.58;;;;;;;4.72;53.10;102015.03;4989532;28;20023;-86
2023/04/20 01:54:37;;;;;;;5.88;2.45;;;;;;;4.67;54.26;102004.38;4989924;28;20422;-86
2023/04/20 01:57:03;;;;;;;5.80;2.40;;;;;;;4.67;53.89;102008.88;4989824;28;20363;-86
2023/04/20 01:59:28;;;;;;;8.55;4.07;;;;;;;4.59;53.91;101996.50;4957992;28;20038;-86
2023/04/20 02:01:54;;;;;;;11.00;3.08;;;;;;;4.60;53.90;101997.38;4970689;28;20035;-86
2023/04/20 02:04:20;;;;;;;8.77;2.60;;;;;;;4.59;54.71;101998.31;4989998;28;20124;-86
2023/04/20 02:06:45;;;;;;;8.15;2.63;;;;;;;4.53;54.12;101993.13;4987864;28;20026;-87
2023/04/20 02:09:11;;;;;;;5.57;2.78;;;;;;;4.49;54.95;101992.31;4990001;28;20465;-87
2023/04/20 02:11:36;;;;;;;5.97;3.17;;;;;;;4.44;56.00;101980.78;4977789;28;20493;-87
2023/04/20 02:14:04;;;;;;;5.63;2.88;;;;;;;4.41;56.76;101985.38;4971023;28;20271;-88
2023/04/20 02:16:30;;;;;;;5.45;2.80;;;;;;;4.31;56.08;101974.84;4971773;28;20038;-88
2023/04/20 02:18:55;;;;;;;5.78;3.35;;;;;;;4.24;56.03;101972.38;4989359;28;20030;-88
2023/04/20 02:21:21;;;;;;;3.92;2.63;;;;;;;4.30;56.19;101977.59;4975416;28;20034;-86
2023/04/20 02:23:47;;;;;;;4.38;2.40;;;;;;;4.28;56.07;101976.75;4971627;28;20113;-88
2023/04/20 02:26:12;;;;;;;4.82;2.78;;;;;;;4.25;56.23;101963.38;4971080;28;20422;-87
2023/04/20 02:28:39;;;;;;;4.82;3.17;;;;;;;4.21;56.60;101950.94;4969284;28;20038;-87
2023/04/20 02:31:11;;;;;;;4.85;3.10;;;;;;;4.22;57.39;101955.38;5043689;28;20992;-72
2023/04/20 02:33:36;;;;;;;4.18;2.80;;;;;;;4.24;57.32;101958.91;5043856;28;20033;-72
2023/04/20 02:36:02;;;;;;;4.47;3.10;;;;;;;4.22;57.40;101968.84;5039820;28;20444;-72
2023/04/20 02:38:27;;;;;;;12.95;2.95;;;;;;;4.21;57.16;101962.59;5022844;28;20095;-71
2023/04/20 02:40:53;;;;;;;5.15;3.25;;;;;;;4.22;58.05;101966.16;5022272;28;20038;-72
2023/04/20 02:43:19;;;;;;;4.88;3.03;;;;;;;4.17;58.51;101965.41;5022322;28;20516;-72
2023/04/20 02:45:45;;;;;;;8.93;2.80;;;;;;;4.14;58.69;101958.28;5021818;28;20465;-72
2023/04/20 02:48:12;;;;;;;5.15;2.83;;;;;;;4.09;59.63;101949.44;5022914;28;20124;-72
2023/04/20 02:50:37;;;;;;;5.57;3.20;;;;;;;4.07;59.70;101949.50;5020992;28;20366;-72
2023/04/20 02:53:15;;;;;;;6.95;3.60;;;;;;;4.07;59.49;101948.63;5041261;28;20041;-72
2023/04/20 02:55:42;;;;;;;8.68;3.05;;;;;;;4.07;60.12;101946.81;5042406;28;20048;-72
2023/04/20 02:58:21;;;;;;;4.03;3.13;;;;;;;4.06;60.24;101939.66;5036546;28;20145;-71
2023/04/20 03:01:06;;;;;;;6.45;3.33;;;;;;;4.05;60.68;101948.66;5021849;28;20456;-72
2023/04/20 03:03:32;;;;;;;6.72;3.55;;;;;;;4.03;61.37;101944.25;5038377;28;20041;-71
2023/04/20 03:05:58;;;;;;;5.60;3.05;;;;;;;4.01;60.92;101938.91;5020868;28;20045;-72
2023/04/20 03:08:24;;;;;;;9.05;3.38;;;;;;;4.03;62.23;101939.75;5021194;28;20037;-72
2023/04/20 03:10:50;;;;;;;4.85;3.15;;;;;;;4.02;61.67;101937.97;5021141;28;20053;-72
2023/04/20 03:13:18;;;;;;;4.18;2.90;;;;;;;4.03;61.98;101928.09;5038136;28;20041;-71
2023/04/20 03:15:51;;;;;;;6.30;3.72;;;;;;;4.03;62.25;101923.59;5024900;28;20060;-72
2023/04/20 03:18:33;;;;;;;5.83;3.30;;;;;;;4.04;61.96;101925.34;5021269;28;20051;-71
2023/04/20 03:20:59;;;;;;;9.25;3.38;;;;;;;4.07;62.64;101922.56;5020809;28;20288;-71
2023/04/20 03:23:26;;;;;;;6.75;3.28;;;;;;;4.13;63.80;101918.81;5020823;28;20034;-72
2023/04/20 03:25:51;;;;;;;8.55;4.07;;;;;;;4.17;63.70;101917.81;5024558;28;20059;-72
2023/04/20 03:28:28;;;;;;;5.63;3.40;;;;;;;4.22;64.35;101918.56;5041386;28;20038;-72
2023/04/20 03:30:53;;;;;;;6.00;4.07;;;;;;;4.24;65.33;101914.03;5007398;28;20046;-72
2023/04/20 03:33:18;;;;;;;7.20;3.75;;;;;;;4.29;65.49;101917.47;5021441;28;20049;-72
2023/04/20 03:35:44;;;;;;;9.02;3.65;;;;;;;4.34;65.96;101914.63;5020244;28;20099;-72
2023/04/20 03:38:09;;;;;;;5.40;3.40;;;;;;;4.39;66.16;101911.81;5021260;28;20083;-72
2023/04/20 03:40:35;;;;;;;8.30;3.70;;;;;;;4.41;66.02;101901.84;5018715;28;20096;-72
2023/04/20 03:43:01;;;;;;;4.38;2.80;;;;;;;4.48;66.69;101898.06;5013725;28;20037;-72
2023/04/20 03:45:27;;;;;;;5.78;4.25;;;;;;;4.52;66.12;101891.63;5014526;28;20055;-72
2023/04/20 03:47:52;;;;;;;4.18;3.15;;;;;;;4.57;66.21;101887.00;5009286;28;20473;-72
2023/04/20 03:50:18;;;;;;;5.30;3.25;;;;;;;4.62;66.38;101890.44;5006990;28;20044;-73
2023/04/20 03:52:43;;;;;;;6.25;3.30;;;;;;;4.67;66.33;101893.88;5009179;28;20548;-72
2023/04/20 03:55:09;;;;;;;3.90;3.03;;;;;;;4.70;65.81;101888.38;5016873;28;20033;-72
2023/04/20 03:57:38;;;;;;;5.90;3.42;;;;;;;4.74;67.24;101881.06;5011776;28;20048;-71
2023/04/20 04:00:05;;;;;;;8.90;3.92;;;;;;;4.78;67.32;101886.31;5017004;28;20034;-72
2023/04/20 04:02:43;;;;;;;5.78;3.80;;;;;;;4.84;67.21;101882.53;5009459;28;20045;-72
2023/04/20 04:05:09;;;;;;;7.15;3.83;;;;;;;4.88;66.46;101884.22;4997151;28;20029;-72
2023/04/20 04:07:34;;;;;;;5.38;3.45;;;;;;;4.91;66.43;101878.72;5028256;28;20045;-72
2023/04/20 04:10:02;;;;;;;5.38;3.70;;;;;;;4.92;67.01;101866.13;5027303;28;20033;-72
2023/04/20 04:12:28;;;;;;;10.93;3.92;;;;;;;4.97;67.18;101881.22;5027214;28;20257;-72
2023/04/20 04:14:53;;;;;;;6.93;3.35;;;;;;;5.02;67.77;101875.66;5018669;28;20057;-72
2023/04/20 04:17:21;;;;;;;5.82;4.22;;;;;;;5.04;67.17;101873.81;5007472;28;20057;-71
2023/04/20 04:19:46;;;;;;;7.38;3.80;;;;;;;5.06;67.32;101872.81;5006756;28;20484;-72
2023/04/20 04:22:12;;;;;;;9.65;4.18;;;;;;;5.10;67.52;101866.41;5006610;28;20037;-72
2023/04/20 04:24:48;;;;;;;8.25;4.32;;;;;;;5.18;67.53;101867.97;5007830;28;20040;-72
2023/04/20 04:27:17;;;;;;;7.05;3.53;;;;;;;5.30;67.52;101865.72;5023410;28;20120;-72
2023/04/20 04:29:51;;;;;;;7.28;3.50;;;;;;;5.40;66.59;101851.91;5018217;28;20085;-72
2023/04/20 04:32:18;;;;;;;7.65;4.15;;;;;;;5.46;66.68;101838.22;5006990;28;20030;-72
2023/04/20 04:34:43;;;;;;;4.78;3.63;;;;;;;5.54;66.28;101846.91;5007834;28;20046;-73
2023/04/20 04:37:10;;;;;;;6.80;3.47;;;;;;;5.58;67.31;101838.66;5006344;28;20037;-72
2023/04/20 04:39:40;;;;;;;5.97;3.42;;;;;;;5.60;66.24;101831.41;5007585;28;20095;-72
2023/04/20 04:42:15;;;;;;;7.80;3.88;;;;;;;5.67;66.00;101839.25;5006908;28;20559;-72
2023/04/20 04:44:42;;;;;;;6.20;3.33;;;;;;;5.70;66.59;101837.34;5007366;28;20033;-71
2023/04/20 04:47:11;;;;;;;7.15;3.47;;;;;;;5.71;67.20;101830.13;5023723;28;20033;-72
2023/04/20 04:49:36;;;;;;;6.53;4.18;;;;;;;5.73;67.46;101829.09;5006722;28;20406;-72
2023/04/20 04:52:02;;;;;;;6.63;3.60;;;;;;;5.75;67.71;101831.78;5005286;28;20034;-72
2023/04/20 04:54:27;;;;;;;5.50;3.97;;;;;;;5.75;68.65;101826.38;5007354;28;20041;-72
2023/04/20 04:56:52;;;;;;;6.65;4.03;;;;;;;5.82;66.41;101827.91;5006270;28;20478;-71
2023/04/20 04:59:18;;;;;;;4.63;3.15;;;;;;;5.86;67.88;101816.94;5009541;28;20104;-71
2023/04/20 05:01:44;;;;;;;5.90;3.30;;;;;;;5.89;67.93;101830.31;5011126;28;20037;-71
2023/04/20 05:04:09;;;;;;;6.30;2.92;;;;;;;5.94;66.77;101823.91;5008985;28;20488;-71
2023/04/20 05:06:35;;;;;;;5.18;3.70;;;;;;;6.01;66.22;101822.72;5016612;28;20057;-71
2023/04/20 05:09:00;;;;;;;9.15;4.32;;;;;;;6.10;67.06;101825.94;5020602;28;20095;-72
2023/04/20 05:11:25;;;;;;;8.48;3.83;;;;;;;6.14;66.97;101819.50;5008669;28;20045;-71
2023/04/20 05:13:51;;;;;;;12.13;3.65;;;;;;;6.23;65.51;101815.56;5026272;28;20041;-71
2023/04/20 05:16:17;;;;;;;5.88;3.95;;;;;;;6.35;64.75;101817.81;5008063;28;20034;-71
2023/04/20 05:18:42;;;;;;;5.18;3.45;;;;;;;6.43;64.91;101822.88;5007182;28;20034;-71
2023/04/20 05:21:07;;;;;;;8.68;3.55;;;;;;;6.50;65.34;101824.41;5009095;28;20394;-71
2023/04/20 05:23:33;;;;;;;9.88;3.85;;;;;;;6.49;65.79;101819.97;5025973;28;20282;-72
2023/04/20 05:25:58;;;;;;;6.68;3.58;;;;;;;6.47;65.36;101816.41;5017522;28;20109;-72
2023/04/20 05:28:23;;;;;;;10.18;3.90;;;;;;;6.50;65.05;101815.44;5005602;28;20172;-71
2023/04/20 05:30:49;;;;;;;4.72;3.78;;;;;;;6.52;65.55;101816.22;5004930;28;20072;-71
2023/04/20 05:33:15;;;;;;;5.03;3.60;;;;;;;6.52;65.53;101816.22;5006155;28;20033;-72
2023/04/20 05:35:40;;;;;;;7.03;3.40;;;;;;;6.55;65.31;101819.69;5006593;28;20504;-71
2023/04/20 05:38:06;;;;;;;9.80;3.72;;;;;;;6.59;65.76;101826.75;5020892;28;20048;-71
2023/04/20 05:40:34;;;;;;;7.53;4.15;;;;;;;6.59;64.53;101817.75;5008656;28;20104;-71
2023/04/20 05:43:00;;;;;;;6.57;4.05;;;;;;;6.57;65.46;101811.53;5024863;28;20037;-71
2023/04/20 05:45:25;;;;;;;7.85;4.07;;;;;;;6.61;65.62;101815.88;5007034;28;20080;-72
2023/04/20 05:47:55;;;;;;;11.05;3.97;;;;;;;6.58;66.34;101797.09;5006827;28;20042;-71
2023/04/20 05:50:24;;;;;;;6.10;3.47;;;;;;;6.62;65.75;101805.00;5012436;28;20057;-71
2023/04/20 05:52:50;;;;;;;7.38;4.43;;;;;;;6.64;65.64;101808.50;5026217;28;20516;-72
2023/04/20 05:55:17;;;;;;;6.50;3.53;;;;;;;6.64;66.76;101805.81;5026634;28;20549;-72
2023/04/20 05:57:42;;;;;;;7.40;3.80;;;;;;;6.69;66.04;101807.44;5027177;28;20040;-71
2023/04/20 06:00:13;;;;;;;6.82;4.00;;;;;;;6.74;65.43;101808.13;5010068;28;20052;-72
2023/04/20 06:02:38;;;;;;;6.85;3.95;;;;;;;6.74;66.51;101802.72;5014239;28;20148;-71
2023/04/20 06:05:04;;;;;;;7.50;4.10;;;;;;;6.77;65.74;101805.31;5025324;28;20479;-71
2023/04/20 06:07:30;;;;;;;8.45;4.55;;;;;;;6.77;66.15;101805.31;5025828;28;20453;-72
2023/04/20 06:09:56;;;;;;;7.18;3.85;;;;;;;6.83;65.58;101802.34;5020761;28;20137;-71
2023/04/20 06:12:21;;;;;;;5.90;3.75;;;;;;;6.89;65.80;101808.38;5007246;28;20038;-72
2023/04/20 06:14:46;;;;;;;8.18;4.07;;;;;;;7.01;64.98;101798.00;5009551;28;20079;-72
2023/04/20 06:17:12;;;;;;;6.68;4.20;;;;;;;7.07;64.85;101795.03;5007874;28;20437;-71
2023/04/20 06:19:37;;;;;;;6.03;4.13;;;;;;;7.12;65.56;101799.28;5006631;28;20099;-72
2023/04/20 06:22:07;;;;;;;7.68;4.07;;;;;;;7.20;65.58;101792.69;5005599;28;20360;-71
2023/04/20 06:24:33;;;;;;;6.97;4.00;;;;;;;7.21;64.11;101792.59;5006267;28;20029;-71
2023/04/20 06:26:59;;;;;;;7.28;4.20;;;;;;;7.27;66.89;101783.34;5024945;28;20034;-71
2023/04/20 06:29:25;;;;;;;9.25;4.07;;;;;;;7.33;65.97;101791.22;5019387;28;20078;-72
2023/04/20 06:31:50;;;;;;;11.30;4.40;;;;;;;7.37;65.25;101792.84;5005196;28;20049;-71
2023/04/20 06:34:15;;;;;;;6.78;4.13;;;;;;;7.38;64.39;101790.06;5006637;28;20053;-72
2023/04/20 06:36:42;;;;;;;9.38;4.38;;;;;;;7.38;65.42;101784.63;5004645;28;20057;-72
2023/04/20 06:39:08;;;;;;;9.02;4.47;;;;;;;7.45;65.83;101785.22;5005321;28;20438;-71
2023/04/20 06:41:33;;;;;;;8.52;4.43;;;;;;;7.44;64.69;101785.31;5005369;28;20324;-72
2023/04/20 06:44:05;;;;;;;7.07;4.60;;;;;;;7.45;65.54;101778.94;5011835;28;20037;-72
2023/04/20 06:46:31;;;;;;;6.72;3.70;;;;;;;7.40;65.01;101777.31;5010914;28;20030;-72
2023/04/20 06:48:57;;;;;;;10.50;4.95;;;;;;;7.44;64.82;101778.06;5005110;28;20041;-70
2023/04/20 06:51:23;;;;;;;6.30;4.35;;;;;;;7.44;65.84;101777.19;5003799;28;20069;-72
2023/04/20 06:53:48;;;;;;;5.93;4.53;;;;;;;7.43;65.40;101779.03;5006224;28;20521;-72
2023/04/20 06:56:14;;;;;;;9.13;4.05;;;;;;;7.41;66.15;101779.09;5006587;28;20073;-71
2023/04/20 06:58:39;;;;;;;8.82;5.05;;;;;;;7.41;65.16;101781.81;5006666;28;20040;-72
2023/04/20 07:01:05;;;;;;;7.38;4.07;;;;;;;7.45;65.92;101781.66;5010119;28;20038;-70
2023/04/20 07:03:30;;;;;;;7.85;4.25;;;;;;;7.43;66.01;101773.59;5021531;28;20140;-71
2023/04/20 07:05:56;;;;;;;6.78;4.90;;;;;;;7.47;66.06;101772.53;5020447;28;20048;-70
2023/04/20 07:08:21;;;;;;;10.75;5.20;;;;;;;7.47;65.30;101790.59;5005546;28;20399;-71
2023/04/20 07:10:46;;;;;;;6.03;4.22;;;;;;;7.45;65.26;101777.13;5004711;28;20096;-71
2023/04/20 07:13:12;;;;;;;6.50;5.35;;;;;;;7.50;65.03;101776.91;5007188;28;20038;-71
2023/04/20 07:15:37;;;;;;;6.85;4.78;;;;;;;7.47;65.06;101763.53;5004084;28;20418;-70
2023/04/20 07:18:03;;;;;;;6.93;4.43;;;;;;;7.45;64.60;101773.53;5009972;28;20144;-71
2023/04/20 07:20:28;;;;;;;8.35;5.07;;;;;;;7.44;65.13;101783.47;5007369;28;20049;-71
2023/04/20 07:22:53;;;;;;;9.45;4.55;;;;;;;7.39;65.37;101772.84;5009469;28;20084;-71
2023/04/20 07:25:19;;;;;;;7.65;4.35;;;;;;;7.46;64.76;101776.19;5009658;28;20457;-71
2023/04/20 07:27:44;;;;;;;6.97;4.28;;;;;;;7.38;64.52;101784.63;5008307;28;20549;-72
2023/04/20 07:30:10;;;;;;;7.90;4.72;;;;;;;7.36;64.64;101775.69;5008449;28;20042;-71
2023/04/20 07:32:37;;;;;;;9.95;4.70;;;;;;;7.33;65.44;101775.84;5009696;28;20095;-72
2023/04/20 07:35:03;;;;;;;7.32;5.30;;;;;;;7.33;65.79;101775.84;5008886;28;20485;-71
2023/04/20 07:37:28;;;;;;;7.47;3.97;;;;;;;7.40;66.71;101793.56;5008996;28;20049;-71
2023/04/20 07:39:53;;;;;;;6.13;3.65;;;;;;;7.43;64.10;101775.44;5009624;28;20042;-71
2023/04/20 07:42:20;;;;;;;7.85;4.07;;;;;;;7.47;65.66;101777.06;5009679;28;20061;-72
2023/04/20 07:44:46;;;;;;;7.28;3.97;;;;;;;7.50;64.85;101776.91;5009108;28;20389;-71
2023/04/20 07:47:11;;;;;;;4.65;3.83;;;;;;;7.50;64.76;101772.38;5010260;28;20040;-72
2023/04/20 07:49:39;;;;;;;6.32;3.58;;;;;;;7.63;64.31;101764.59;5016503;28;20045;-72
2023/04/20 07:52:05;;;;;;;7.18;4.47;;;;;;;7.69;65.23;101767.00;5026792;28;20504;-71
2023/04/20 07:54:31;;;;;;;6.50;4.05;;;;;;;7.78;64.57;101773.84;5027633;28;20040;-71
2023/04/20 07:56:56;;;;;;;5.30;3.97;;;;;;;7.84;64.53;101770.88;5012309;28;20046;-72
2023/04/20 07:59:22;;;;;;;5.80;3.90;;;;;;;7.90;65.60;101771.44;5008989;28;20041;-72
2023/04/20 08:01:47;;;;;;;8.00;4.43;;;;;;;8.02;66.16;101769.09;5008468;28;20372;-71
2023/04/20 08:04:12;;;;;;;7.97;4.40;;;;;;;8.14;65.90;101757.69;5010045;28;20037;-71
2023/04/20 08:06:38;;;;;;;7.38;4.05;;;;;;;8.19;63.51;101759.22;5006341;28;20507;-71
2023/04/20 08:09:03;;;;;;;9.90;5.57;;;;;;;8.27;64.18;101763.41;5007715;28;20037;-72
2023/04/20 08:11:28;;;;;;;6.75;4.00;;;;;;;8.41;65.52;101763.66;5009354;28;20117;-71
2023/04/20 08:13:54;;;;;;;5.88;4.05;;;;;;;8.55;65.37;101761.16;5008864;28;20544;-71
2023/04/20 08:16:19;;;;;;;9.35;3.63;;;;;;;8.60;64.09;101755.50;5012894;28;20026;-71
2023/04/20 08:18:45;;;;;;;7.47;4.57;;;;;;;8.61;63.23;101757.25;5008935;28;20065;-71
2023/04/20 08:21:10;;;;;;;8.93;4.45;;;;;;;8.62;63.33;101754.44;5008772;28;20038;-72
2023/04/20 08:23:35;;;;;;;4.90;3.75;;;;;;;8.63;64.49;101756.22;5020375;28;20333;-72
2023/04/20 08:26:02;;;;;;;6.93;4.32;;;;;;;8.62;64.27;101750.84;5026905;28;20091;-71
2023/04/20 08:28:27;;;;;;;6.10;3.58;;;;;;;8.63;63.17;101753.50;5014567;28;20034;-71
2023/04/20 08:30:52;;;;;;;12.82;3.95;;;;;;;8.62;63.15;101751.72;5008056;28;20048;-72
2023/04/20 08:33:18;;;;;;;6.07;3.92;;;;;;;8.56;62.96;101749.34;5008534;28;20125;-71
2023/04/20 08:35:44;;;;;;;5.32;3.35;;;;;;;8.54;64.64;101745.84;5008251;28;20069;-71
2023/04/20 08:38:10;;;;;;;4.65;3.63;;;;;;;8.57;64.93;101742.94;5007007;28;20500;-72
2023/04/20 08:40:36;;;;;;;6.13;3.72;;;;;;;8.52;64.37;101733.28;5008374;28;20056;-71
2023/04/20 08:43:02;;;;;;;5.25;3.92;;;;;;;8.64;66.39;101732.69;5007076;28;20073;-71
2023/04/20 08:45:30;;;;;;;6.88;4.30;;;;;;;8.84;64.00;101732.53;5008123;28;20060;-71
2023/04/20 08:47:58;;;;;;;8.98;3.97;;;;;;;8.95;64.40;101726.56;5008073;28;20069;-72
2023/04/20 08:50:23;;;;;;;5.20;3.42;;;;;;;9.10;63.71;101731.22;5006200;28;20080;-71
2023/04/20 08:52:49;;;;;;;6.40;3.75;;;;;;;9.25;62.92;101732.25;5007619;28;20049;-71
2023/04/20 08:55:18;;;;;;;13.40;3.58;;;;;;;9.25;61.68;101731.38;5006569;28;20088;-71
2023/04/20 08:57:44;;;;;;;7.95;3.50;;;;;;;9.26;62.83;101730.41;5008753;28;20060;-72
2023/04/20 09:00:10;;;;;;;6.13;3.53;;;;;;;9.38;63.81;101725.22;5016974;28;20108;-72
2023/04/20 09:02:47;;;;;;;5.00;3.60;;;;;;;9.50;62.56;101723.66;5007962;28;20045;-71
2023/04/20 09:05:12;;;;;;;7.07;3.60;;;;;;;9.78;63.34;101724.88;5007548;28;20038;-72
2023/04/20 09:07:38;;;;;;;7.53;4.40;;;;;;;9.77;61.06;101728.56;5007081;28;20441;-71
2023/04/20 09:10:03;;;;;;;5.13;3.58;;;;;;;9.56;63.33;101717.00;5006543;28;20883;-71
2023/04/20 09:12:39;;;;;;;6.05;3.22;;;;;;;9.42;62.25;101729.53;5008047;28;20097;-72
2023/04/20 09:15:05;;;;;;;5.28;3.75;;;;;;;9.49;62.55;101718.31;5008813;28;20100;-71
2023/04/20 09:17:35;;;;;;;10.63;4.00;;;;;;;9.66;62.46;101721.88;5027380;28;20444;-71
2023/04/20 09:20:03;;;;;;;4.90;3.30;;;;;;;9.60;61.89;101735.78;5026805;28;20594;-71
2023/04/20 09:22:34;;;;;;;6.47;3.17;;;;;;;9.43;61.79;101733.13;5025382;28;20432;-71
2023/04/20 09:25:10;;;;;;;6.00;3.38;;;;;;;9.38;62.56;101725.22;5007809;28;20466;-71
2023/04/20 09:27:36;;;;;;;6.30;3.75;;;;;;;9.39;62.42;101718.81;5011919;28;20045;-71
2023/04/20 09:30:02;;;;;;;3.95;3.55;;;;;;;9.32;61.95;101714.66;5011038;28;20067;-71
2023/04/20 09:32:28;;;;;;;8.30;3.30;;;;;;;9.19;62.98;101716.28;5007227;28;20038;-71
2023/04/20 09:34:53;;;;;;;5.35;3.83;;;;;;;9.08;62.76;101711.41;5026691;28;20033;-71
2023/04/20 09:37:19;;;;;;;5.78;3.42;;;;;;;9.06;63.43;101715.16;5023360;28;20037;-71
2023/04/20 09:39:45;;;;;;;15.05;3.95;;;;;;;9.21;64.40;101714.34;5026584;28;20029;-71
2023/04/20 09:42:13;;;;;;;5.97;3.63;;;;;;;9.41;64.11;101703.28;5026328;28;20072;-71
2023/04/20 09:44:39;;;;;;;5.45;3.63;;;;;;;9.49;61.70;101712.88;5008875;28;20034;-71
2023/04/20 09:47:06;;;;;;;5.45;3.72;;;;;;;9.43;62.95;101717.69;5005632;28;20133;-71
2023/04/20 09:49:32;;;;;;;5.85;3.70;;;;;;;9.40;62.65;101716.97;5007196;28;20030;-71
2023/04/20 09:52:01;;;;;;;4.75;3.55;;;;;;;9.20;61.91;101701.75;5004400;28;20050;-71
2023/04/20 09:54:27;;;;;;;11.05;4.15;;;;;;;9.10;62.31;101712.22;5005985;28;20046;-72
2023/04/20 09:56:53;;;;;;;5.80;3.05;;;;;;;8.93;62.86;101707.66;5006833;28;20032;-71
2023/04/20 09:59:20;;;;;;;5.53;3.83;;;;;;;8.88;63.44;101701.59;5014980;28;20033;-71
2023/04/20 10:01:45;;;;;;;6.93;3.63;;;;;;;8.94;64.03;101690.41;5004967;28;20500;-71
2023/04/20 10:04:13;;;;;;;8.65;3.95;;;;;;;8.94;63.21;101690.41;5007807;28;20161;-72
2023/04/20 10:06:39;;;;;;;7.25;4.50;;;;;;;9.03;63.75;101689.06;5005427;28;20481;-71
2023/04/20 10:09:06;;;;;;;6.72;3.85;;;;;;;9.04;62.97;101681.78;5006769;28;20494;-71
2023/04/20 10:11:35;;;;;;;5.07;3.45;;;;;;;9.05;63.50;101686.28;5006934;28;20034;-72
2023/04/20 10:14:16;;;;;;;7.65;4.28;;;;;;;9.06;63.79;101674.47;5005864;28;20025;-71
2023/04/20 10:16:43;;;;;;;9.10;4.30;;;;;;;9.08;64.65;101680.66;5021414;28;20065;-72
2023/04/20 10:19:09;;;;;;;5.65;4.05;;;;;;;9.13;63.45;101684.88;5009058;28;20115;-72
2023/04/20 10:21:47;;;;;;;6.90;3.80;;;;;;;9.23;63.43;101678.97;5009475;28;20125;-72
2023/04/20 10:24:14;;;;;;;5.20;3.85;;;;;;;9.19;62.98;101681.88;5006253;28;20125;-71
2023/04/20 10:26:44;;;;;;;4.88;3.83;;;;;;;9.09;62.17;101667.03;5007244;28;20053;-71
2023/04/20 10:29:11;;;;;;;6.10;3.67;;;;;;;9.09;63.05;101686.03;5006853;28;20525;-72
2023/04/20 10:31:38;;;;;;;5.95;3.75;;;;;;;9.09;62.82;101686.03;5006329;28;20037;-71
2023/04/20 10:34:04;;;;;;;5.07;3.95;;;;;;;9.13;65.16;101678.59;5008831;28;20373;-72
2023/04/20 10:36:35;;;;;;;5.57;4.25;;;;;;;9.32;63.87;101683.91;5025068;28;20423;-71
2023/04/20 10:39:14;;;;;;;7.43;4.03;;;;;;;9.41;63.43;101675.25;5011804;28;20041;-71
2023/04/20 10:41:54;;;;;;;6.97;4.20;;;;;;;9.54;62.75;101676.34;5007466;28;20416;-72
2023/04/20 10:44:20;;;;;;;6.32;4.45;;;;;;;9.50;62.92;101679.31;5006677;28;20136;-71
2023/04/20 10:46:50;;;;;;;5.15;4.10;;;;;;;9.57;62.92;101659.91;5005283;28;20045;-72
2023/04/20 10:49:16;;;;;;;5.53;4.05;;;;;;;9.75;65.54;101663.44;5011621;28;20042;-71
2023/04/20 10:51:49;;;;;;;4.85;3.85;;;;;;;9.78;61.06;101662.38;5027281;28;20048;-71
2023/04/20 10:54:14;;;;;;;6.70;4.07;;;;;;;9.86;63.01;101663.69;5009600;28;20096;-72
2023/04/20 10:56:43;;;;;;;7.40;4.05;;;;;;;10.04;61.33;101660.91;5011078;28;20068;-71
2023/04/20 10:59:13;;;;;;;8.10;3.95;;;;;;;10.07;59.73;101644.41;5011698;28;20049;-71
2023/04/20 11:01:39;;;;;;;10.35;4.47;;;;;;;10.17;61.90;101657.41;5012919;28;20042;-72
2023/04/20 11:04:06;;;;;;;5.25;4.00;;;;;;;10.24;61.26;101657.94;5010371;28;20069;-71
2023/04/20 11:06:32;;;;;;;5.05;4.20;;;;;;;10.32;61.02;101658.38;5008845;28;20053;-71
2023/04/20 11:08:57;;;;;;;5.60;4.22;;;;;;;10.24;59.30;101641.63;5009984;28;20038;-71
2023/04/20 11:11:26;;;;;;;8.13;4.50;;;;;;;10.07;60.73;101661.63;5010284;28;20038;-71
2023/04/20 11:13:52;;;;;;;11.77;5.32;;;;;;;10.04;60.97;101650.03;5008659;28;20442;-72
2023/04/20 11:16:18;;;;;;;12.85;4.93;;;;;;;10.03;60.32;101653.72;5010585;28;20045;-71
2023/04/20 11:18:54;;;;;;;6.90;4.50;;;;;;;9.91;61.22;101647.13;5010679;28;20490;-71
2023/04/20 11:21:21;;;;;;;7.82;4.70;;;;;;;9.90;61.08;101646.25;5008348;28;20034;-71
2023/04/20 11:23:48;;;;;;;6.22;4.40;;;;;;;10.01;62.61;101631.16;5009992;28;20477;-72
2023/04/20 11:26:14;;;;;;;6.78;4.03;;;;;;;10.26;58.73;101623.41;5010459;28;20080;-72
2023/04/20 11:28:53;;;;;;;6.43;4.30;;;;;;;10.31;59.30;101625.84;5010362;28;20112;-70